createdAt,value
2023-04-15T00:00:06.064Z,69.93
2023-04-15T00:01:06.756Z,70.04
2023-04-15T00:02:07.489Z,69.93
2023-04-15T00:03:08.336Z,69.73
2023-04-15T00:04:09.226Z,69.83
2023-04-15T00:05:10.029Z,69.73
2023-04-15T00:06:11.305Z,69.62
2023-04-15T00:07:11.393Z,69.73
2023-04-15T00:08:12.114Z,69.73
2023-04-15T00:09:12.971Z,69.62
2023-04-15T00:10:13.913Z,69.65
2023-04-15T00:11:14.785Z,69.55
2023-04-15T00:12:15.986Z,69.45
2023-04-15T00:13:16.099Z,69.24
2023-04-15T00:14:16.776Z,69.24
2023-04-15T00:15:17.545Z,69.24
2023-04-15T00:16:18.277Z,69.35
2023-04-15T00:17:19.080Z,69.65
2023-04-15T00:18:19.834Z,69.76
2023-04-15T00:19:21.436Z,69.86
2023-04-15T00:20:21.540Z,69.96
2023-04-15T00:21:22.283Z,70.07
2023-04-15T00:22:22.953Z,69.86
2023-04-15T00:23:23.655Z,69.86
2023-04-15T00:24:24.342Z,69.86
2023-04-15T00:25:25.052Z,70.07
2023-04-15T00:26:25.738Z,70.17
2023-04-15T00:27:26.446Z,69.76
2023-04-15T00:28:27.147Z,69.76
2023-04-15T00:29:27.846Z,69.96
2023-04-15T00:30:28.536Z,70.31
2023-04-15T00:31:29.260Z,70.72
2023-04-15T00:32:30.125Z,70.62
2023-04-15T00:33:30.830Z,70.62
2023-04-15T00:34:31.496Z,70.51
2023-04-15T00:35:32.328Z,70.10
2023-04-15T00:36:33.127Z,70.10
2023-04-15T00:37:33.792Z,69.59
2023-04-15T00:38:34.487Z,69.59
2023-04-15T00:39:35.192Z,69.69
2023-04-15T00:40:35.876Z,69.69
2023-04-15T00:41:36.561Z,69.48
2023-04-15T00:42:37.371Z,69.59
2023-04-15T00:43:38.080Z,69.38
2023-04-15T00:44:38.770Z,69.38
2023-04-15T00:45:39.557Z,69.24
2023-04-15T00:46:40.344Z,69.04
2023-04-15T00:47:41.077Z,68.93
2023-04-15T00:48:41.735Z,68.83
2023-04-15T00:49:43.373Z,68.73
2023-04-15T00:50:43.522Z,68.93
2023-04-15T00:51:44.908Z,69.04
2023-04-15T00:52:45.029Z,68.83
2023-04-15T00:53:45.754Z,68.73
2023-04-15T00:54:46.432Z,68.73
2023-04-15T00:55:47.119Z,68.73
2023-04-15T00:56:47.804Z,68.21
2023-04-15T00:57:48.554Z,68.11
2023-04-15T00:58:49.231Z,68.62
2023-04-15T00:59:49.921Z,68.42
2023-04-15T01:00:50.609Z,68.21
2023-04-15T01:01:51.414Z,68.32
2023-04-15T01:02:52.300Z,68.52
2023-04-15T01:03:53.215Z,68.73
2023-04-15T01:04:53.964Z,68.73
2023-04-15T01:05:54.651Z,68.52
2023-04-15T01:06:55.341Z,68.76
2023-04-15T01:07:56.085Z,69.07
2023-04-15T01:08:57.821Z,69.48
2023-04-15T01:09:57.669Z,69.89
2023-04-15T01:10:58.353Z,69.79
2023-04-15T01:11:59.038Z,69.59
2023-04-15T01:12:59.731Z,69.38
2023-04-15T01:14:01.907Z,69.48
2023-04-15T01:15:01.385Z,69.48
2023-04-15T01:16:01.782Z,69.79
2023-04-15T01:17:03.434Z,69.89
2023-04-15T01:18:07.045Z,69.69
2023-04-15T01:19:04.274Z,69.79
2023-04-15T01:20:07.484Z,70.03
2023-04-15T01:21:05.916Z,70.13
2023-04-15T01:22:07.398Z,70.44
2023-04-15T01:23:07.521Z,70.23
2023-04-15T01:24:08.998Z,70.13
2023-04-15T01:25:09.351Z,70.13
2023-04-15T01:26:10.062Z,70.13
2023-04-15T01:27:10.759Z,70.34
2023-04-15T01:28:11.445Z,70.65
2023-04-15T01:29:12.164Z,70.65
2023-04-15T01:30:12.831Z,70.96
2023-04-15T01:31:13.584Z,70.86
2023-04-15T01:32:14.276Z,70.65
2023-04-15T01:33:15.078Z,70.75
2023-04-15T01:34:15.791Z,70.96
2023-04-15T01:35:16.468Z,71.26
2023-04-15T01:36:17.166Z,71.47
2023-04-15T01:37:17.848Z,71.51
2023-04-15T01:38:18.631Z,71.41
2023-04-15T01:39:19.315Z,71.41
2023-04-15T01:40:20.037Z,71.51
2023-04-15T01:41:20.709Z,71.71
2023-04-15T01:42:21.410Z,71.51
2023-04-15T01:43:22.103Z,71.41
2023-04-15T01:44:22.803Z,71.61
2023-04-15T01:45:23.537Z,71.71
2023-04-15T01:46:24.276Z,71.51
2023-04-15T01:47:25.022Z,71.51
2023-04-15T01:48:27.038Z,71.71
2023-04-15T01:49:26.564Z,71.92
2023-04-15T01:50:27.236Z,71.71
2023-04-15T01:51:27.917Z,71.41
2023-04-15T01:52:28.655Z,71.30
2023-04-15T01:53:29.495Z,71.30
2023-04-15T01:54:30.168Z,71.20
2023-04-15T01:55:30.856Z,71.20
2023-04-15T01:56:31.569Z,71.09
2023-04-15T01:57:32.284Z,71.20
2023-04-15T01:58:33.743Z,71.33
2023-04-15T01:59:34.191Z,71.44
2023-04-15T02:00:34.896Z,71.75
2023-04-15T02:01:36.427Z,72.06
2023-04-15T02:02:37.330Z,72.16
2023-04-15T02:03:37.579Z,72.26
2023-04-15T02:04:38.312Z,71.95
2023-04-15T02:05:39.007Z,71.95
2023-04-15T02:06:39.753Z,71.95
2023-04-15T02:07:40.467Z,71.75
2023-04-15T02:08:41.132Z,72.06
2023-04-15T02:09:41.808Z,72.06
2023-04-15T02:10:45.580Z,71.88
2023-04-15T02:11:43.438Z,72.09
2023-04-15T02:12:44.160Z,72.50
2023-04-15T02:13:47.908Z,72.30
2023-04-15T02:14:45.704Z,72.40
2023-04-15T02:15:46.384Z,72.40
2023-04-15T02:16:47.116Z,72.40
2023-04-15T02:17:47.869Z,72.40
2023-04-15T02:18:48.602Z,72.19
2023-04-15T02:19:49.311Z,72.09
2023-04-15T02:20:50.076Z,72.30
2023-04-15T02:21:50.730Z,72.61
2023-04-15T02:22:51.444Z,72.61
2023-04-15T02:23:53.609Z,72.61
2023-04-15T02:24:53.009Z,72.50
2023-04-15T02:25:54.461Z,72.30
2023-04-15T02:26:54.585Z,72.40
2023-04-15T02:27:55.282Z,72.50
2023-04-15T02:28:55.993Z,72.61
2023-04-15T02:29:56.675Z,72.50
2023-04-15T02:30:57.360Z,72.40
2023-04-15T02:31:58.072Z,72.50
2023-04-15T02:32:59.188Z,72.50
2023-04-15T02:33:59.287Z,72.50
2023-04-15T02:34:59.975Z,72.19
2023-04-15T02:36:00.661Z,72.19
2023-04-15T02:37:01.691Z,72.19
2023-04-15T02:38:02.394Z,72.30
2023-04-15T02:39:03.533Z,72.30
2023-04-15T02:40:03.771Z,72.50
2023-04-15T02:41:04.462Z,72.64
2023-04-15T02:42:05.143Z,72.53
2023-04-15T02:43:05.841Z,72.43
2023-04-15T02:44:06.528Z,72.53
2023-04-15T02:45:07.197Z,72.64
2023-04-15T02:46:07.896Z,72.64
2023-04-15T02:47:08.639Z,72.95
2023-04-15T02:48:09.361Z,72.74
2023-04-15T02:49:10.049Z,72.85
2023-04-15T02:50:10.742Z,72.64
2023-04-15T02:51:11.437Z,72.12
2023-04-15T02:52:12.124Z,72.22
2023-04-15T02:53:12.822Z,72.43
2023-04-15T02:54:13.519Z,72.33
2023-04-15T02:55:14.205Z,72.22
2023-04-15T02:56:14.892Z,72.53
2023-04-15T02:57:15.595Z,72.22
2023-04-15T02:58:16.271Z,72.02
2023-04-15T02:59:16.977Z,71.92
2023-04-15T03:00:17.671Z,71.81
2023-04-15T03:01:18.372Z,71.81
2023-04-15T03:02:19.164Z,72.12
2023-04-15T03:03:19.999Z,72.22
2023-04-15T03:04:20.887Z,72.12
2023-04-15T03:05:21.609Z,72.33
2023-04-15T03:06:22.301Z,72.33
2023-04-15T03:07:22.991Z,72.33
2023-04-15T03:08:23.665Z,72.36
2023-04-15T03:09:24.344Z,72.36
2023-04-15T03:10:25.578Z,72.36
2023-04-15T03:11:25.712Z,72.57
2023-04-15T03:12:26.455Z,72.57
2023-04-15T03:13:27.239Z,72.57
2023-04-15T03:14:27.904Z,72.57
2023-04-15T03:15:28.635Z,72.88
2023-04-15T03:16:29.314Z,72.88
2023-04-15T03:17:30.071Z,72.47
2023-04-15T03:18:30.994Z,72.16
2023-04-15T03:19:31.701Z,72.26
2023-04-15T03:20:32.387Z,72.47
2023-04-15T03:21:33.082Z,72.26
2023-04-15T03:22:33.765Z,72.36
2023-04-15T03:23:34.445Z,72.57
2023-04-15T03:24:35.139Z,72.78
2023-04-15T03:25:35.826Z,72.78
2023-04-15T03:26:36.504Z,72.67
2023-04-15T03:27:38.029Z,72.88
2023-04-15T03:28:38.138Z,72.88
2023-04-15T03:29:38.818Z,72.78
2023-04-15T03:30:39.532Z,72.57
2023-04-15T03:31:40.310Z,72.47
2023-04-15T03:32:40.981Z,72.36
2023-04-15T03:33:41.658Z,72.16
2023-04-15T03:34:42.370Z,72.05
2023-04-15T03:35:43.057Z,72.05
2023-04-15T03:36:43.760Z,72.05
2023-04-15T03:37:44.470Z,71.84
2023-04-15T03:38:45.173Z,71.84
2023-04-15T03:39:45.924Z,72.05
2023-04-15T03:40:46.633Z,72.26
2023-04-15T03:41:47.324Z,72.16
2023-04-15T03:42:48.024Z,72.36
2023-04-15T03:43:48.706Z,72.26
2023-04-15T03:44:49.405Z,72.16
2023-04-15T03:45:50.101Z,72.36
2023-04-15T03:46:50.892Z,72.36
2023-04-15T03:47:51.677Z,72.67
2023-04-15T03:48:52.468Z,72.57
2023-04-15T03:49:53.195Z,72.81
2023-04-15T03:50:53.868Z,73.12
2023-04-15T03:51:54.578Z,73.12
2023-04-15T03:52:55.255Z,73.12
2023-04-15T03:53:55.944Z,73.33
2023-04-15T03:54:56.621Z,73.33
2023-04-15T03:55:57.297Z,73.54
2023-04-15T03:56:58.016Z,73.54
2023-04-15T03:57:58.718Z,73.64
2023-04-15T03:58:59.888Z,73.43
2023-04-15T04:00:00.225Z,73.22
2023-04-15T04:01:00.904Z,73.19
2023-04-15T04:02:02.405Z,72.67
2023-04-15T04:03:02.692Z,72.57
2023-04-15T04:04:03.620Z,72.47
2023-04-15T04:05:04.389Z,72.57
2023-04-15T04:06:05.101Z,72.67
2023-04-15T04:07:05.876Z,72.88
2023-04-15T04:08:06.581Z,72.88
2023-04-15T04:09:07.273Z,72.78
2023-04-15T04:10:07.939Z,72.78
2023-04-15T04:11:08.653Z,72.67
2023-04-15T04:12:09.384Z,72.67
2023-04-15T04:13:10.065Z,72.78
2023-04-15T04:14:10.841Z,72.78
2023-04-15T04:15:11.560Z,72.71
2023-04-15T04:16:12.548Z,72.71
2023-04-15T04:17:13.406Z,73.12
2023-04-15T04:18:14.414Z,73.12
2023-04-15T04:19:15.123Z,73.33
2023-04-15T04:20:15.848Z,73.43
2023-04-15T04:21:16.549Z,73.33
2023-04-15T04:22:17.227Z,73.43
2023-04-15T04:23:17.922Z,73.33
2023-04-15T04:24:18.606Z,73.54
2023-04-15T04:25:19.293Z,73.64
2023-04-15T04:26:19.986Z,73.74
2023-04-15T04:27:20.669Z,73.64
2023-04-15T04:28:21.361Z,73.57
2023-04-15T04:29:22.046Z,73.43
2023-04-15T04:30:22.776Z,73.57
2023-04-15T04:31:23.533Z,73.77
2023-04-15T04:32:24.314Z,73.88
2023-04-15T04:33:24.975Z,73.77
2023-04-15T04:34:25.762Z,73.77
2023-04-15T04:35:26.768Z,73.88
2023-04-15T04:36:27.463Z,73.88
2023-04-15T04:37:28.144Z,73.98
2023-04-15T04:38:28.829Z,74.19
2023-04-15T04:39:29.527Z,74.19
2023-04-15T04:40:30.207Z,74.08
2023-04-15T04:41:30.918Z,74.19
2023-04-15T04:42:31.602Z,74.29
2023-04-15T04:43:32.975Z,74.50
2023-04-15T04:44:33.068Z,74.50
2023-04-15T04:45:33.780Z,74.71
2023-04-15T04:46:34.474Z,74.81
2023-04-15T04:47:35.180Z,74.60
2023-04-15T04:48:35.878Z,74.60
2023-04-15T04:49:36.561Z,74.60
2023-04-15T04:50:37.273Z,74.71
2023-04-15T04:51:37.962Z,74.60
2023-04-15T04:52:38.651Z,74.19
2023-04-15T04:53:39.339Z,74.19
2023-04-15T04:54:40.095Z,74.19
2023-04-15T04:55:40.814Z,74.19
2023-04-15T04:56:41.512Z,74.08
2023-04-15T04:57:42.744Z,74.29
2023-04-15T04:58:43.906Z,74.60
2023-04-15T04:59:43.449Z,74.71
2023-04-15T05:00:44.143Z,74.50
2023-04-15T05:01:44.897Z,74.29
2023-04-15T05:02:45.684Z,74.29
2023-04-15T05:03:46.469Z,74.40
2023-04-15T05:04:47.177Z,74.40
2023-04-15T05:05:47.889Z,74.40
2023-04-15T05:06:48.581Z,74.40
2023-04-15T05:07:49.289Z,74.29
2023-04-15T05:08:49.968Z,74.40
2023-04-15T05:09:50.660Z,74.60
2023-04-15T05:10:51.360Z,75.05
2023-04-15T05:11:52.274Z,75.15
2023-04-15T05:12:52.982Z,75.26
2023-04-15T05:13:53.676Z,75.26
2023-04-15T05:14:54.369Z,75.15
2023-04-15T05:15:55.069Z,75.26
2023-04-15T05:16:55.869Z,75.46
2023-04-15T05:17:56.629Z,75.57
2023-04-15T05:18:57.547Z,75.36
2023-04-15T05:19:58.243Z,75.36
2023-04-15T05:20:58.947Z,75.46
2023-04-15T05:21:59.635Z,75.36
2023-04-15T05:23:00.320Z,75.26
2023-04-15T05:24:01.141Z,75.26
2023-04-15T05:25:02.092Z,75.22
2023-04-15T05:26:02.806Z,75.32
2023-04-15T05:27:03.496Z,75.22
2023-04-15T05:28:04.206Z,75.12
2023-04-15T05:29:04.875Z,75.12
2023-04-15T05:30:05.565Z,75.02
2023-04-15T05:31:06.328Z,75.02
2023-04-15T05:32:07.032Z,75.12
2023-04-15T05:33:07.712Z,75.12
2023-04-15T05:34:08.424Z,75.12
2023-04-15T05:35:09.316Z,74.91
2023-04-15T05:36:10.026Z,74.81
2023-04-15T05:37:10.708Z,74.57
2023-04-15T05:38:11.425Z,74.46
2023-04-15T05:39:12.082Z,74.46
2023-04-15T05:40:12.783Z,74.57
2023-04-15T05:41:13.648Z,74.67
2023-04-15T05:42:14.346Z,74.67
2023-04-15T05:43:15.027Z,74.77
2023-04-15T05:44:15.776Z,74.77
2023-04-15T05:45:16.766Z,74.74
2023-04-15T05:46:17.965Z,74.74
2023-04-15T05:47:18.112Z,74.95
2023-04-15T05:48:18.856Z,74.84
2023-04-15T05:49:19.767Z,74.74
2023-04-15T05:50:20.596Z,74.63
2023-04-15T05:51:21.306Z,74.53
2023-04-15T05:52:22.049Z,74.60
2023-04-15T05:53:22.721Z,74.60
2023-04-15T05:54:23.418Z,74.40
2023-04-15T05:55:24.084Z,74.40
2023-04-15T05:56:24.783Z,74.29
2023-04-15T05:57:25.486Z,73.98
2023-04-15T05:58:26.984Z,73.67
2023-04-15T05:59:27.087Z,73.57
2023-04-15T06:00:27.831Z,73.47
2023-04-15T06:01:28.498Z,73.12
2023-04-15T06:02:29.352Z,72.91
2023-04-15T06:03:30.623Z,72.81
2023-04-15T06:04:30.888Z,72.81
2023-04-15T06:05:31.921Z,72.81
2023-04-15T06:06:32.601Z,73.02
2023-04-15T06:07:33.700Z,73.12
2023-04-15T06:08:33.817Z,73.02
2023-04-15T06:09:34.495Z,73.02
2023-04-15T06:10:35.218Z,72.71
2023-04-15T06:11:35.899Z,72.61
2023-04-15T06:12:36.605Z,72.57
2023-04-15T06:13:37.272Z,72.78
2023-04-15T06:14:37.984Z,73.09
2023-04-15T06:15:38.655Z,72.88
2023-04-15T06:16:39.428Z,72.67
2023-04-15T06:17:40.158Z,72.67
2023-04-15T06:18:40.863Z,72.67
2023-04-15T06:19:41.538Z,72.47
2023-04-15T06:20:42.259Z,72.57
2023-04-15T06:21:42.961Z,72.67
2023-04-15T06:22:43.672Z,72.64
2023-04-15T06:23:44.352Z,72.78
2023-04-15T06:24:45.384Z,72.74
2023-04-15T06:25:46.101Z,72.74
2023-04-15T06:26:47.189Z,72.74
2023-04-15T06:27:47.589Z,72.64
2023-04-15T06:28:48.283Z,72.74
2023-04-15T06:29:48.978Z,72.64
2023-04-15T06:30:49.748Z,72.64
2023-04-15T06:31:50.446Z,73.02
2023-04-15T06:32:51.177Z,73.22
2023-04-15T06:33:51.879Z,73.12
2023-04-15T06:34:52.777Z,73.12
2023-04-15T06:35:53.481Z,73.22
2023-04-15T06:36:54.178Z,73.33
2023-04-15T06:37:54.880Z,73.19
2023-04-15T06:38:55.567Z,73.30
2023-04-15T06:39:56.269Z,73.19
2023-04-15T06:40:56.959Z,73.50
2023-04-15T06:41:57.662Z,73.50
2023-04-15T06:42:58.340Z,73.60
2023-04-15T06:43:59.033Z,73.40
2023-04-15T06:44:59.718Z,73.30
2023-04-15T06:46:00.470Z,73.19
2023-04-15T06:47:01.245Z,73.19
2023-04-15T06:48:01.942Z,72.37
2023-04-15T06:49:02.804Z,72.27
2023-04-15T06:50:03.593Z,72.27
2023-04-15T06:51:04.290Z,72.16
2023-04-15T06:52:04.983Z,71.55
2023-04-15T06:53:05.685Z,71.85
2023-04-15T06:54:06.374Z,71.75
2023-04-15T06:55:07.868Z,71.85
2023-04-15T06:56:07.981Z,71.95
2023-04-15T06:57:08.683Z,72.06
2023-04-15T06:58:09.757Z,72.13
2023-04-15T06:59:10.835Z,72.13
2023-04-15T07:00:11.518Z,72.44
2023-04-15T07:01:12.249Z,72.44
2023-04-15T07:02:13.289Z,72.54
2023-04-15T07:03:14.074Z,72.23
2023-04-15T07:04:14.770Z,72.13
2023-04-15T07:05:15.444Z,71.99
2023-04-15T07:06:16.963Z,71.48
2023-04-15T07:07:17.082Z,71.17
2023-04-15T07:08:17.770Z,71.27
2023-04-15T07:09:18.444Z,71.37
2023-04-15T07:10:19.143Z,71.48
2023-04-15T07:11:19.868Z,71.78
2023-04-15T07:12:20.548Z,71.58
2023-04-15T07:13:21.260Z,71.37
2023-04-15T07:14:22.418Z,71.48
2023-04-15T07:15:22.926Z,71.65
2023-04-15T07:16:23.031Z,70.93
2023-04-15T07:17:23.830Z,70.93
2023-04-15T07:18:24.537Z,71.14
2023-04-15T07:19:25.227Z,70.93
2023-04-15T07:20:25.965Z,71.34
2023-04-15T07:21:26.701Z,71.41
2023-04-15T07:22:27.405Z,71.10
2023-04-15T07:23:28.287Z,70.79
2023-04-15T07:24:28.993Z,70.59
2023-04-15T07:25:29.704Z,70.45
2023-04-15T07:26:30.375Z,69.84
2023-04-15T07:27:31.129Z,69.63
2023-04-15T07:28:31.812Z,69.53
2023-04-15T07:29:32.493Z,69.80
2023-04-15T07:30:33.196Z,69.80
2023-04-15T07:31:33.923Z,70.11
2023-04-15T07:32:34.677Z,69.90
2023-04-15T07:33:35.347Z,69.39
2023-04-15T07:34:36.062Z,69.46
2023-04-15T07:35:36.760Z,69.56
2023-04-15T07:36:37.460Z,68.43
2023-04-15T07:37:38.139Z,68.13
2023-04-15T07:38:38.839Z,68.33
2023-04-15T07:39:39.712Z,68.10
2023-04-15T07:40:40.410Z,68.19
2023-04-15T07:41:41.209Z,67.38
2023-04-15T07:42:41.906Z,67.27
2023-04-15T07:43:42.578Z,66.66
2023-04-15T07:44:43.265Z,66.55
2023-04-15T07:45:44.018Z,66.83
2023-04-15T07:46:44.703Z,66.52
2023-04-15T07:47:45.576Z,66.31
2023-04-15T07:48:46.314Z,66.52
2023-04-15T07:49:47.004Z,66.63
2023-04-15T07:50:47.725Z,66.93
2023-04-15T07:51:49.389Z,66.73
2023-04-15T07:52:48.959Z,67.00
2023-04-15T07:53:49.651Z,66.80
2023-04-15T07:54:50.375Z,66.70
2023-04-15T07:55:51.056Z,66.80
2023-04-15T07:56:51.820Z,67.00
2023-04-15T07:57:52.519Z,66.90
2023-04-15T07:58:53.208Z,66.77
2023-04-15T07:59:53.907Z,66.67
2023-04-15T08:00:54.618Z,66.56
2023-04-15T08:01:55.336Z,66.56
2023-04-15T08:02:56.283Z,66.46
2023-04-15T08:03:57.285Z,66.05
2023-04-15T08:04:58.158Z,65.95
2023-04-15T08:05:58.840Z,65.81
2023-04-15T08:06:59.525Z,65.61
2023-04-15T08:08:00.206Z,65.61
2023-04-15T08:09:01.242Z,66.02
2023-04-15T08:10:01.749Z,65.92
2023-04-15T08:11:02.473Z,66.22
2023-04-15T08:12:03.175Z,66.91
2023-04-15T08:13:03.962Z,66.50
2023-04-15T08:14:04.641Z,66.30
2023-04-15T08:15:05.382Z,65.78
2023-04-15T08:16:06.188Z,65.89
2023-04-15T08:17:06.880Z,66.40
2023-04-15T08:18:07.625Z,66.57
2023-04-15T08:19:08.362Z,66.67
2023-04-15T08:20:09.075Z,67.08
2023-04-15T08:21:09.795Z,65.96
2023-04-15T08:22:17.598Z,66.24
2023-04-15T08:23:11.725Z,65.93
2023-04-15T08:24:12.426Z,65.62
2023-04-15T08:25:13.229Z,65.31
2023-04-15T08:26:13.940Z,65.52
2023-04-15T08:27:14.655Z,64.77
2023-04-15T08:28:15.376Z,64.67
2023-04-15T08:29:16.160Z,64.77
2023-04-15T08:30:16.865Z,64.87
2023-04-15T08:31:17.604Z,65.80
2023-04-15T08:32:18.344Z,65.46
2023-04-15T08:33:19.089Z,65.36
2023-04-15T08:34:19.798Z,66.07
2023-04-15T08:35:20.529Z,65.46
2023-04-15T08:36:21.498Z,64.54
2023-04-15T08:37:22.586Z,64.23
2023-04-15T08:38:23.156Z,64.13
2023-04-15T08:39:23.359Z,64.10
2023-04-15T08:40:24.080Z,64.61
2023-04-15T08:41:24.823Z,65.22
2023-04-15T08:42:25.553Z,65.19
2023-04-15T08:43:26.351Z,64.07
2023-04-15T08:44:27.084Z,63.96
2023-04-15T08:45:27.818Z,63.76
2023-04-15T08:46:28.570Z,63.45
2023-04-15T08:47:29.294Z,63.22
2023-04-15T08:48:31.486Z,63.43
2023-04-15T08:49:31.022Z,63.83
2023-04-15T08:50:31.763Z,63.43
2023-04-15T08:51:32.462Z,63.12
2023-04-15T08:52:33.171Z,63.12
2023-04-15T08:53:34.029Z,63.56
2023-04-15T08:54:34.794Z,63.86
2023-04-15T08:55:35.544Z,63.96
2023-04-15T08:56:36.314Z,64.17
2023-04-15T08:57:37.004Z,64.37
2023-04-15T08:58:37.722Z,64.48
2023-04-15T08:59:38.725Z,65.30
2023-04-15T09:00:39.487Z,65.09
2023-04-15T09:01:40.284Z,65.40
2023-04-15T09:02:41.322Z,65.60
2023-04-15T09:03:42.214Z,64.45
2023-04-15T09:04:42.952Z,63.93
2023-04-15T09:05:43.695Z,64.04
2023-04-15T09:06:44.383Z,63.73
2023-04-15T09:07:45.159Z,63.73
2023-04-15T09:08:45.854Z,63.93
2023-04-15T09:09:46.574Z,63.90
2023-04-15T09:10:47.525Z,65.13
2023-04-15T09:11:48.218Z,65.34
2023-04-15T09:12:48.942Z,64.52
2023-04-15T09:13:49.654Z,62.65
2023-04-15T09:14:50.377Z,62.55
2023-04-15T09:15:51.136Z,62.65
2023-04-15T09:16:52.043Z,62.76
2023-04-15T09:17:52.748Z,63.03
2023-04-15T09:18:53.458Z,62.93
2023-04-15T09:19:54.173Z,62.42
2023-04-15T09:20:54.891Z,62.70
2023-04-15T09:21:58.451Z,61.27
2023-04-15T09:22:56.255Z,60.02
2023-04-15T09:23:57.375Z,59.71
2023-04-15T09:24:57.596Z,58.97
2023-04-15T09:25:58.309Z,59.07
2023-04-15T09:26:59.039Z,58.05
2023-04-15T09:27:59.775Z,56.70
2023-04-15T09:29:00.491Z,56.09
2023-04-15T09:30:01.214Z,54.85
2023-04-15T09:31:02.022Z,52.91
2023-04-15T09:32:02.762Z,53.63
2023-04-15T09:33:03.514Z,53.63
2023-04-15T09:34:04.882Z,52.10
2023-04-15T09:35:05.335Z,51.89
2023-04-15T09:36:06.062Z,51.39
2023-04-15T09:37:07.731Z,51.79
2023-04-15T09:38:07.702Z,52.40
2023-04-15T09:39:08.428Z,52.71
2023-04-15T09:40:09.160Z,51.79
2023-04-15T09:41:09.872Z,51.08
2023-04-15T09:42:10.580Z,50.26
2023-04-15T09:43:11.582Z,51.39
2023-04-15T09:44:12.389Z,48.64
2023-04-15T09:45:13.197Z,49.15
2023-04-15T09:46:14.004Z,49.63
2023-04-15T09:47:14.697Z,48.72
2023-04-15T09:48:15.402Z,48.82
2023-04-15T09:49:16.164Z,48.82
2023-04-15T09:50:17.175Z,47.37
2023-04-15T09:51:17.859Z,48.39
2023-04-15T09:52:18.557Z,49.20
2023-04-15T09:53:19.301Z,50.22
2023-04-15T09:54:20.029Z,49.00
2023-04-15T09:55:20.765Z,50.50
2023-04-15T09:56:21.465Z,47.05
2023-04-15T09:57:22.185Z,48.16
2023-04-15T09:58:22.898Z,46.44
2023-04-15T09:59:23.619Z,47.06
2023-04-15T10:00:24.363Z,47.06
2023-04-15T10:01:25.138Z,47.06
2023-04-15T10:02:26.910Z,47.37
2023-04-15T10:03:28.146Z,47.47
2023-04-15T10:04:27.558Z,46.74
2023-04-15T10:05:29.726Z,47.25
2023-04-15T10:06:29.322Z,46.44
2023-04-15T10:07:30.039Z,46.41
2023-04-15T10:08:30.756Z,46.31
2023-04-15T10:09:31.454Z,46.70
2023-04-15T10:10:32.192Z,46.80
2023-04-15T10:11:32.912Z,48.10
2023-04-15T10:12:33.658Z,46.67
2023-04-15T16:22:34.437Z,77.70
2023-04-15T16:23:36.299Z,78.20
2023-04-15T16:24:37.004Z,79.02
2023-04-15T16:25:40.640Z,79.53
2023-04-15T16:26:38.471Z,79.02
2023-04-15T16:28:39.950Z,78.34
2023-04-15T16:29:40.669Z,78.86
2023-04-15T16:30:41.375Z,79.06
2023-04-15T16:31:42.122Z,78.04
2023-04-15T16:32:43.533Z,78.24
2023-04-15T16:33:43.680Z,78.75
2023-04-15T16:34:44.411Z,78.75
2023-04-15T16:35:45.115Z,77.32
2023-04-15T16:36:46.432Z,77.12
2023-04-15T16:37:48.545Z,76.61
2023-04-15T16:38:48.863Z,76.50
2023-04-15T16:39:49.147Z,77.53
2023-04-15T16:40:49.749Z,78.86
2023-04-15T16:41:50.456Z,78.55
2023-04-15T16:42:50.988Z,77.63
2023-04-15T16:43:52.051Z,77.05
2023-04-15T16:44:52.346Z,77.46
2023-04-15T16:45:53.760Z,77.76
2023-04-15T16:46:53.939Z,77.26
2023-04-15T16:47:54.708Z,76.54
2023-04-15T16:48:55.416Z,77.05
2023-04-15T16:49:56.226Z,76.84
2023-04-15T16:50:57.130Z,77.05
2023-04-15T16:51:57.846Z,77.97
2023-04-15T16:52:58.540Z,78.08
2023-04-15T16:54:00.187Z,78.79
2023-04-15T16:55:00.130Z,79.41
2023-04-15T16:56:00.936Z,78.69
2023-04-15T16:57:01.430Z,78.49
2023-04-15T16:58:04.219Z,77.05
2023-04-15T16:59:02.544Z,77.56
2023-04-15T17:00:03.769Z,78.38
2023-04-15T17:01:04.528Z,78.69
2023-04-15T17:02:05.276Z,78.49
2023-04-15T17:03:05.789Z,78.08
2023-04-15T17:04:06.353Z,78.38
2023-04-15T17:05:07.129Z,78.49
2023-04-15T17:06:08.361Z,78.89
2023-04-15T17:07:08.478Z,79.50
2023-04-15T17:08:09.294Z,79.71
2023-04-15T17:09:10.042Z,79.82
2023-04-15T17:10:10.854Z,79.20
2023-04-15T17:11:11.571Z,79.20
2023-04-15T17:12:13.208Z,79.41
2023-04-15T17:13:13.359Z,79.30
2023-04-15T17:15:55.114Z,79.61
2023-04-15T17:16:54.712Z,79.50
2023-04-15T17:17:56.098Z,79.41
2023-04-15T17:18:56.248Z,80.02
2023-04-15T17:19:56.979Z,79.61
2023-04-15T17:20:57.642Z,79.30
2023-04-15T17:21:58.357Z,78.89
2023-04-15T17:22:59.065Z,78.28
2023-04-15T17:23:59.773Z,78.17
2023-04-15T17:25:00.467Z,78.49
2023-04-15T17:26:01.174Z,79.10
2023-04-15T17:27:03.725Z,79.10
2023-04-15T17:28:02.360Z,79.10
2023-04-15T17:29:03.216Z,79.10
2023-04-15T17:30:04.054Z,79.20
2023-04-15T17:31:04.769Z,79.41
2023-04-15T17:32:05.491Z,79.20
2023-04-15T17:33:55.554Z,79.00
2023-04-15T17:34:13.233Z,78.79
2023-04-15T17:35:07.745Z,78.93
2023-04-15T17:36:08.424Z,79.96
2023-04-15T17:37:09.148Z,80.16
2023-04-15T17:38:09.837Z,80.36
2023-04-15T17:39:10.557Z,79.54
2023-04-15T17:40:11.251Z,79.75
2023-04-15T17:41:11.947Z,80.26
2023-04-15T17:42:12.674Z,80.36
2023-04-15T17:43:13.368Z,80.57
2023-04-15T17:44:14.081Z,80.57
2023-04-15T17:45:14.774Z,80.88
2023-04-15T17:46:15.533Z,80.36
2023-04-15T17:47:16.272Z,80.88
2023-04-15T17:48:16.947Z,79.44
2023-04-15T17:49:17.656Z,79.54
2023-04-15T17:50:18.363Z,79.96
2023-04-15T17:51:19.061Z,80.57
2023-04-15T17:52:19.801Z,80.77
2023-04-15T17:53:20.498Z,80.77
2023-04-15T17:54:21.201Z,80.77
2023-04-15T17:55:21.909Z,80.98
2023-04-15T17:56:22.631Z,80.57
2023-04-15T17:57:23.386Z,80.67
2023-04-15T17:58:24.129Z,79.85
2023-04-15T17:59:24.882Z,79.64
2023-04-15T18:00:25.636Z,80.26
2023-04-15T18:01:26.507Z,80.26
2023-04-15T18:02:27.628Z,80.36
2023-04-15T18:03:28.074Z,79.34
2023-04-15T18:04:29.111Z,79.85
2023-04-15T18:05:29.999Z,80.05
2023-04-15T18:06:30.704Z,78.63
2023-04-15T18:07:31.465Z,79.13
2023-04-15T18:08:32.299Z,79.13
2023-04-15T18:09:33.066Z,78.83
2023-04-15T18:10:33.830Z,79.24
2023-04-15T18:11:34.633Z,79.96
2023-04-15T18:12:35.412Z,79.75
2023-04-15T18:13:36.172Z,79.44
2023-04-15T18:14:36.926Z,79.64
2023-04-15T18:15:37.704Z,79.64
2023-04-15T18:16:38.917Z,78.83
2023-04-15T18:17:39.211Z,78.83
2023-04-15T18:18:40.023Z,78.93
2023-04-15T18:19:40.768Z,79.34
2023-04-15T18:20:41.523Z,79.75
2023-04-15T18:21:42.280Z,79.85
2023-04-15T18:22:43.025Z,79.34
2023-04-15T18:23:43.760Z,79.27
2023-04-15T18:24:44.569Z,79.17
2023-04-15T18:25:45.382Z,79.68
2023-04-15T18:26:48.774Z,79.89
2023-04-15T18:27:46.895Z,79.99
2023-04-15T18:28:47.637Z,79.68
2023-04-15T18:29:48.387Z,79.89
2023-04-15T18:30:49.194Z,80.19
2023-04-15T18:31:50.000Z,80.30
2023-04-15T18:32:50.790Z,80.71
2023-04-15T18:33:51.551Z,80.81
2023-04-15T18:34:52.293Z,80.09
2023-04-15T18:35:53.068Z,79.68
2023-04-15T18:36:53.800Z,79.99
2023-04-15T18:37:54.592Z,80.51
2023-04-15T18:38:55.349Z,80.51
2023-04-15T18:39:56.102Z,80.51
2023-04-15T18:40:56.868Z,80.19
2023-04-15T18:41:57.621Z,79.89
2023-04-15T18:42:58.402Z,80.51
2023-04-15T18:43:59.167Z,80.60
2023-04-15T18:44:59.933Z,80.91
2023-04-15T18:46:00.771Z,80.40
2023-04-15T18:47:01.569Z,80.19
2023-04-15T18:48:02.321Z,79.68
2023-04-15T18:49:03.162Z,80.09
2023-04-15T18:50:04.060Z,80.51
2023-04-15T18:51:04.811Z,80.40
2023-04-15T18:52:05.594Z,80.81
2023-04-15T18:53:06.352Z,80.51
2023-04-15T18:54:07.149Z,80.60
2023-04-15T18:55:07.946Z,80.60
2023-04-15T18:56:08.714Z,81.15
2023-04-15T18:57:09.556Z,81.26
2023-04-15T18:58:10.297Z,81.05
2023-04-15T18:59:29.782Z,81.15
2023-04-15T19:00:12.072Z,82.18
2023-04-15T19:01:12.855Z,82.39
2023-04-15T19:02:13.620Z,82.28
2023-04-15T19:03:14.371Z,82.90
2023-04-15T19:04:15.195Z,82.90
2023-04-15T19:05:16.025Z,82.79
2023-04-15T19:06:16.840Z,82.79
2023-04-15T19:07:17.586Z,82.86
2023-04-15T19:08:18.354Z,82.96
2023-04-15T19:09:19.134Z,83.27
2023-04-15T19:10:19.848Z,83.27
2023-04-15T19:11:20.608Z,83.47
2023-04-15T19:12:21.351Z,83.58
2023-04-15T19:13:22.134Z,83.58